sensor_id;sensor_type;location;lat;lon;timestamp;temperature;humidity
2687;DHT22;1353;51.386;7.028;2022-12-29T00:01:56;9.30;99.90
2687;DHT22;1353;51.386;7.028;2022-12-29T00:04:23;9.30;99.90
2687;DHT22;1353;51.386;7.028;2022-12-29T00:06:52;9.40;99.90
2687;DHT22;1353;51.386;7.028;2022-12-29T00:09:19;9.30;99.90
2687;DHT22;1353;51.386;7.028;2022-12-29T00:11:46;9.30;99.90
2687;DHT22;1353;51.386;7.028;2022-12-29T00:14:13;9.20;99.90
2687;DHT22;1353;51.386;7.028;2022-12-29T00:16:57;9.20;99.90
2687;DHT22;1353;51.386;7.028;2022-12-29T00:19:24;9.20;99.90
2687;DHT22;1353;51.386;7.028;2022-12-29T00:22:12;9.20;99.90
2687;DHT22;1353;51.386;7.028;2022-12-29T00:24:56;9.20;99.90
2687;DHT22;1353;51.386;7.028;2022-12-29T00:27:40;9.20;99.90
2687;DHT22;1353;51.386;7.028;2022-12-29T00:30:25;9.20;99.90
2687;DHT22;1353;51.386;7.028;2022-12-29T00:33:10;9.20;99.90
2687;DHT22;1353;51.386;7.028;2022-12-29T00:35:58;9.20;99.90
2687;DHT22;1353;51.386;7.028;2022-12-29T00:38:29;9.30;99.90
2687;DHT22;1353;51.386;7.028;2022-12-29T00:41:14;9.30;99.90
2687;DHT22;1353;51.386;7.028;2022-12-29T00:43:58;9.30;99.90
2687;DHT22;1353;51.386;7.028;2022-12-29T00:46:31;9.40;99.90
2687;DHT22;1353;51.386;7.028;2022-12-29T00:48:58;9.40;99.90
2687;DHT22;1353;51.386;7.028;2022-12-29T00:51:43;9.40;99.90
2687;DHT22;1353;51.386;7.028;2022-12-29T00:54:11;9.30;99.90
2687;DHT22;1353;51.386;7.028;2022-12-29T00:56:38;9.30;99.90
2687;DHT22;1353;51.386;7.028;2022-12-29T00:59:06;9.40;99.90
2687;DHT22;1353;51.386;7.028;2022-12-29T01:01:34;9.40;99.90
2687;DHT22;1353;51.386;7.028;2022-12-29T01:04:01;9.40;99.90
2687;DHT22;1353;51.386;7.028;2022-12-29T01:06:28;9.80;99.90
2687;DHT22;1353;51.386;7.028;2022-12-29T01:08:54;9.50;99.90
2687;DHT22;1353;51.386;7.028;2022-12-29T01:11:37;9.50;99.90
2687;DHT22;1353;51.386;7.028;2022-12-29T01:14:04;9.60;99.90
2687;DHT22;1353;51.386;7.028;2022-12-29T01:16:31;9.60;99.90
2687;DHT22;1353;51.386;7.028;2022-12-29T01:18:57;9.50;99.90
2687;DHT22;1353;51.386;7.028;2022-12-29T01:21:25;9.60;99.90
2687;DHT22;1353;51.386;7.028;2022-12-29T01:23:51;9.50;99.90
2687;DHT22;1353;51.386;7.028;2022-12-29T01:26:18;9.60;99.90
2687;DHT22;1353;51.386;7.028;2022-12-29T01:28:46;9.60;99.90
2687;DHT22;1353;51.386;7.028;2022-12-29T01:31:14;9.60;99.90
2687;DHT22;1353;51.386;7.028;2022-12-29T01:33:42;9.60;99.90
2687;DHT22;1353;51.386;7.028;2022-12-29T01:36:10;9.70;99.90
2687;DHT22;1353;51.386;7.028;2022-12-29T01:38:38;9.70;99.90
2687;DHT22;1353;51.386;7.028;2022-12-29T01:41:06;9.60;99.90
2687;DHT22;1353;51.386;7.028;2022-12-29T01:43:41;9.60;99.90
2687;DHT22;1353;51.386;7.028;2022-12-29T01:46:18;9.60;99.90
2687;DHT22;1353;51.386;7.028;2022-12-29T01:48:47;9.70;99.90
2687;DHT22;1353;51.386;7.028;2022-12-29T01:51:15;9.70;99.90
2687;DHT22;1353;51.386;7.028;2022-12-29T01:53:43;9.70;99.90
2687;DHT22;1353;51.386;7.028;2022-12-29T01:56:12;9.70;99.90
2687;DHT22;1353;51.386;7.028;2022-12-29T01:58:44;9.70;99.90
2687;DHT22;1353;51.386;7.028;2022-12-29T02:01:14;9.80;99.90
2687;DHT22;1353;51.386;7.028;2022-12-29T02:03:42;9.80;99.90
2687;DHT22;1353;51.386;7.028;2022-12-29T02:06:13;9.90;99.90
2687;DHT22;1353;51.386;7.028;2022-12-29T02:08:43;9.80;99.90
2687;DHT22;1353;51.386;7.028;2022-12-29T02:11:13;9.80;99.90
2687;DHT22;1353;51.386;7.028;2022-12-29T02:13:40;9.80;99.90
2687;DHT22;1353;51.386;7.028;2022-12-29T02:19:19;9.90;99.90
2687;DHT22;1353;51.386;7.028;2022-12-29T02:22:00;9.90;99.90
2687;DHT22;1353;51.386;7.028;2022-12-29T02:27:40;10.00;99.90
2687;DHT22;1353;51.386;7.028;2022-12-29T02:30:35;10.00;99.90
2687;DHT22;1353;51.386;7.028;2022-12-29T02:33:13;10.00;99.90
2687;DHT22;1353;51.386;7.028;2022-12-29T02:35:47;10.00;99.90
2687;DHT22;1353;51.386;7.028;2022-12-29T02:38:23;10.00;99.90
2687;DHT22;1353;51.386;7.028;2022-12-29T02:40:54;10.10;99.90
2687;DHT22;1353;51.386;7.028;2022-12-29T02:43:25;10.20;99.90
2687;DHT22;1353;51.386;7.028;2022-12-29T02:45:58;10.20;99.90
2687;DHT22;1353;51.386;7.028;2022-12-29T02:48:28;10.20;99.90
2687;DHT22;1353;51.386;7.028;2022-12-29T02:51:00;10.20;99.90
2687;DHT22;1353;51.386;7.028;2022-12-29T02:53:29;10.10;99.90
2687;DHT22;1353;51.386;7.028;2022-12-29T02:56:14;10.10;99.90
2687;DHT22;1353;51.386;7.028;2022-12-29T02:58:41;10.20;99.90
2687;DHT22;1353;51.386;7.028;2022-12-29T03:01:21;10.10;99.90
2687;DHT22;1353;51.386;7.028;2022-12-29T03:04:00;10.20;99.90
2687;DHT22;1353;51.386;7.028;2022-12-29T03:06:35;10.30;99.90
2687;DHT22;1353;51.386;7.028;2022-12-29T03:09:11;10.30;99.90
2687;DHT22;1353;51.386;7.028;2022-12-29T03:11:52;10.30;99.90
2687;DHT22;1353;51.386;7.028;2022-12-29T03:14:39;10.20;99.90
2687;DHT22;1353;51.386;7.028;2022-12-29T03:17:29;10.40;99.90
2687;DHT22;1353;51.386;7.028;2022-12-29T03:20:04;10.30;99.90
2687;DHT22;1353;51.386;7.028;2022-12-29T03:22:36;10.40;99.90
2687;DHT22;1353;51.386;7.028;2022-12-29T03:25:05;10.40;99.90
2687;DHT22;1353;51.386;7.028;2022-12-29T03:27:40;10.40;99.90
2687;DHT22;1353;51.386;7.028;2022-12-29T03:30:08;10.40;99.90
2687;DHT22;1353;51.386;7.028;2022-12-29T03:32:40;10.50;99.90
2687;DHT22;1353;51.386;7.028;2022-12-29T03:35:10;10.50;99.90
2687;DHT22;1353;51.386;7.028;2022-12-29T03:37:41;10.50;99.90
2687;DHT22;1353;51.386;7.028;2022-12-29T03:40:11;10.50;99.90
2687;DHT22;1353;51.386;7.028;2022-12-29T03:42:39;10.50;99.90
2687;DHT22;1353;51.386;7.028;2022-12-29T03:45:08;10.30;99.90
2687;DHT22;1353;51.386;7.028;2022-12-29T03:47:37;10.20;99.90
2687;DHT22;1353;51.386;7.028;2022-12-29T03:50:04;10.10;99.90
2687;DHT22;1353;51.386;7.028;2022-12-29T03:52:31;10.20;99.90
2687;DHT22;1353;51.386;7.028;2022-12-29T03:54:57;10.20;99.90
2687;DHT22;1353;51.386;7.028;2022-12-29T03:57:24;10.20;99.90
2687;DHT22;1353;51.386;7.028;2022-12-29T03:59:51;10.20;99.90
2687;DHT22;1353;51.386;7.028;2022-12-29T04:02:17;10.30;99.90
2687;DHT22;1353;51.386;7.028;2022-12-29T04:04:45;10.30;99.90
2687;DHT22;1353;51.386;7.028;2022-12-29T04:07:12;10.20;99.90
2687;DHT22;1353;51.386;7.028;2022-12-29T04:09:39;10.30;99.90
2687;DHT22;1353;51.386;7.028;2022-12-29T04:12:06;10.30;99.90
2687;DHT22;1353;51.386;7.028;2022-12-29T04:14:32;10.30;99.90
2687;DHT22;1353;51.386;7.028;2022-12-29T04:16:59;10.30;99.90
2687;DHT22;1353;51.386;7.028;2022-12-29T04:19:26;10.20;99.90
2687;DHT22;1353;51.386;7.028;2022-12-29T04:21:54;10.20;99.90
2687;DHT22;1353;51.386;7.028;2022-12-29T04:24:20;10.20;99.90
2687;DHT22;1353;51.386;7.028;2022-12-29T04:26:47;10.20;99.90
2687;DHT22;1353;51.386;7.028;2022-12-29T04:29:14;10.20;99.90
2687;DHT22;1353;51.386;7.028;2022-12-29T04:31:40;10.20;99.90
2687;DHT22;1353;51.386;7.028;2022-12-29T04:34:07;10.30;99.90
2687;DHT22;1353;51.386;7.028;2022-12-29T04:36:34;10.30;99.90
2687;DHT22;1353;51.386;7.028;2022-12-29T04:39:02;10.30;99.90
2687;DHT22;1353;51.386;7.028;2022-12-29T04:41:30;10.40;99.90
2687;DHT22;1353;51.386;7.028;2022-12-29T04:43:57;10.50;99.90
2687;DHT22;1353;51.386;7.028;2022-12-29T04:46:24;10.40;99.90
2687;DHT22;1353;51.386;7.028;2022-12-29T04:48:50;10.50;99.90
2687;DHT22;1353;51.386;7.028;2022-12-29T04:51:17;10.50;99.90
2687;DHT22;1353;51.386;7.028;2022-12-29T04:53:44;10.60;99.90
2687;DHT22;1353;51.386;7.028;2022-12-29T04:56:12;10.60;99.90
2687;DHT22;1353;51.386;7.028;2022-12-29T04:58:39;10.50;99.90
2687;DHT22;1353;51.386;7.028;2022-12-29T05:01:06;10.60;99.90
2687;DHT22;1353;51.386;7.028;2022-12-29T05:03:32;10.70;99.90
2687;DHT22;1353;51.386;7.028;2022-12-29T05:05:59;10.60;99.90
2687;DHT22;1353;51.386;7.028;2022-12-29T05:08:26;10.80;99.90
2687;DHT22;1353;51.386;7.028;2022-12-29T05:10:53;10.90;99.90
2687;DHT22;1353;51.386;7.028;2022-12-29T05:13:21;10.90;99.90
2687;DHT22;1353;51.386;7.028;2022-12-29T05:15:49;10.80;99.90
2687;DHT22;1353;51.386;7.028;2022-12-29T05:18:16;10.80;99.90
2687;DHT22;1353;51.386;7.028;2022-12-29T05:20:42;10.70;99.90
2687;DHT22;1353;51.386;7.028;2022-12-29T05:23:09;10.80;99.90
2687;DHT22;1353;51.386;7.028;2022-12-29T05:25:36;10.80;99.90
2687;DHT22;1353;51.386;7.028;2022-12-29T05:28:03;10.80;99.90
2687;DHT22;1353;51.386;7.028;2022-12-29T05:30:31;10.90;99.90
2687;DHT22;1353;51.386;7.028;2022-12-29T05:32:58;10.90;99.90
2687;DHT22;1353;51.386;7.028;2022-12-29T05:35:24;11.00;99.90
2687;DHT22;1353;51.386;7.028;2022-12-29T05:37:51;11.00;99.90
2687;DHT22;1353;51.386;7.028;2022-12-29T05:40:18;11.20;99.90
2687;DHT22;1353;51.386;7.028;2022-12-29T05:42:45;11.00;99.90
2687;DHT22;1353;51.386;7.028;2022-12-29T05:45:11;11.00;99.90
2687;DHT22;1353;51.386;7.028;2022-12-29T05:47:39;10.90;99.90
2687;DHT22;1353;51.386;7.028;2022-12-29T05:50:07;10.80;99.90
2687;DHT22;1353;51.386;7.028;2022-12-29T05:52:33;10.70;99.90
2687;DHT22;1353;51.386;7.028;2022-12-29T05:55:00;10.70;99.90
2687;DHT22;1353;51.386;7.028;2022-12-29T05:57:27;10.80;99.90
2687;DHT22;1353;51.386;7.028;2022-12-29T05:59:53;10.70;99.90
2687;DHT22;1353;51.386;7.028;2022-12-29T06:02:20;10.70;99.90
2687;DHT22;1353;51.386;7.028;2022-12-29T06:04:48;10.80;99.90
2687;DHT22;1353;51.386;7.028;2022-12-29T06:07:15;10.80;99.90
2687;DHT22;1353;51.386;7.028;2022-12-29T06:09:42;10.80;99.90
2687;DHT22;1353;51.386;7.028;2022-12-29T06:12:08;10.70;99.90
2687;DHT22;1353;51.386;7.028;2022-12-29T06:14:35;10.80;99.90
2687;DHT22;1353;51.386;7.028;2022-12-29T06:17:02;10.80;99.90
2687;DHT22;1353;51.386;7.028;2022-12-29T06:19:28;10.70;99.90
2687;DHT22;1353;51.386;7.028;2022-12-29T06:21:56;10.80;99.90
2687;DHT22;1353;51.386;7.028;2022-12-29T06:24:23;10.70;99.90
2687;DHT22;1353;51.386;7.028;2022-12-29T06:26:50;10.80;99.90
2687;DHT22;1353;51.386;7.028;2022-12-29T06:29:16;10.70;99.90
2687;DHT22;1353;51.386;7.028;2022-12-29T06:31:44;10.70;99.90
2687;DHT22;1353;51.386;7.028;2022-12-29T06:34:11;10.50;99.90
2687;DHT22;1353;51.386;7.028;2022-12-29T06:36:38;10.40;99.90
2687;DHT22;1353;51.386;7.028;2022-12-29T06:39:06;10.40;99.90
2687;DHT22;1353;51.386;7.028;2022-12-29T06:41:33;10.40;99.90
2687;DHT22;1353;51.386;7.028;2022-12-29T06:44:00;10.60;99.90
2687;DHT22;1353;51.386;7.028;2022-12-29T06:46:26;10.50;99.90
2687;DHT22;1353;51.386;7.028;2022-12-29T06:48:53;10.60;99.90
2687;DHT22;1353;51.386;7.028;2022-12-29T06:51:20;10.60;99.90
2687;DHT22;1353;51.386;7.028;2022-12-29T06:53:46;10.60;99.90
2687;DHT22;1353;51.386;7.028;2022-12-29T06:56:15;10.70;99.90
2687;DHT22;1353;51.386;7.028;2022-12-29T06:58:41;10.60;99.90
2687;DHT22;1353;51.386;7.028;2022-12-29T07:01:08;10.50;99.90
2687;DHT22;1353;51.386;7.028;2022-12-29T07:03:35;10.70;99.90
2687;DHT22;1353;51.386;7.028;2022-12-29T07:06:01;10.60;99.90
2687;DHT22;1353;51.386;7.028;2022-12-29T07:08:28;10.70;99.90
2687;DHT22;1353;51.386;7.028;2022-12-29T07:10:55;10.50;99.90
2687;DHT22;1353;51.386;7.028;2022-12-29T07:13:23;10.40;99.90
2687;DHT22;1353;51.386;7.028;2022-12-29T07:15:50;10.30;99.90
2687;DHT22;1353;51.386;7.028;2022-12-29T07:18:16;10.30;99.90
2687;DHT22;1353;51.386;7.028;2022-12-29T07:20:43;10.30;99.90
2687;DHT22;1353;51.386;7.028;2022-12-29T07:23:10;10.40;99.90
2687;DHT22;1353;51.386;7.028;2022-12-29T07:25:37;10.30;99.90
2687;DHT22;1353;51.386;7.028;2022-12-29T07:28:05;10.40;99.90
2687;DHT22;1353;51.386;7.028;2022-12-29T07:30:36;10.40;99.90
2687;DHT22;1353;51.386;7.028;2022-12-29T07:33:03;10.50;99.90
2687;DHT22;1353;51.386;7.028;2022-12-29T07:35:30;10.40;99.90
2687;DHT22;1353;51.386;7.028;2022-12-29T07:37:56;10.40;99.90
2687;DHT22;1353;51.386;7.028;2022-12-29T07:40:23;10.40;99.90
2687;DHT22;1353;51.386;7.028;2022-12-29T07:42:50;10.30;99.90
2687;DHT22;1353;51.386;7.028;2022-12-29T07:45:17;10.20;99.90
2687;DHT22;1353;51.386;7.028;2022-12-29T07:47:47;10.30;99.90
2687;DHT22;1353;51.386;7.028;2022-12-29T07:50:14;10.30;99.90
2687;DHT22;1353;51.386;7.028;2022-12-29T07:52:41;10.40;99.90
2687;DHT22;1353;51.386;7.028;2022-12-29T07:55:08;10.40;99.90
2687;DHT22;1353;51.386;7.028;2022-12-29T07:57:35;10.40;99.90
2687;DHT22;1353;51.386;7.028;2022-12-29T08:00:02;10.40;99.90
2687;DHT22;1353;51.386;7.028;2022-12-29T08:02:30;10.40;99.90
2687;DHT22;1353;51.386;7.028;2022-12-29T08:04:58;10.40;99.90
2687;DHT22;1353;51.386;7.028;2022-12-29T08:07:24;10.40;99.90
2687;DHT22;1353;51.386;7.028;2022-12-29T08:09:51;10.40;99.90
2687;DHT22;1353;51.386;7.028;2022-12-29T08:12:18;10.40;99.90
2687;DHT22;1353;51.386;7.028;2022-12-29T08:14:45;10.40;99.90
2687;DHT22;1353;51.386;7.028;2022-12-29T08:17:12;10.40;99.90
2687;DHT22;1353;51.386;7.028;2022-12-29T08:19:38;10.40;99.90
2687;DHT22;1353;51.386;7.028;2022-12-29T08:22:06;10.50;99.90
2687;DHT22;1353;51.386;7.028;2022-12-29T08:24:33;10.40;99.90
2687;DHT22;1353;51.386;7.028;2022-12-29T08:27:00;10.40;99.90
2687;DHT22;1353;51.386;7.028;2022-12-29T08:29:27;10.40;99.90
2687;DHT22;1353;51.386;7.028;2022-12-29T08:31:54;10.40;99.90
2687;DHT22;1353;51.386;7.028;2022-12-29T08:34:21;10.50;99.90
2687;DHT22;1353;51.386;7.028;2022-12-29T08:36:48;10.50;99.90
2687;DHT22;1353;51.386;7.028;2022-12-29T08:39:16;10.40;99.90
2687;DHT22;1353;51.386;7.028;2022-12-29T08:41:43;10.50;99.90
2687;DHT22;1353;51.386;7.028;2022-12-29T08:44:09;10.50;99.90
2687;DHT22;1353;51.386;7.028;2022-12-29T08:46:36;10.50;99.90
2687;DHT22;1353;51.386;7.028;2022-12-29T08:49:03;10.50;99.90
2687;DHT22;1353;51.386;7.028;2022-12-29T08:51:30;10.60;99.90
2687;DHT22;1353;51.386;7.028;2022-12-29T08:53:56;10.40;99.90
2687;DHT22;1353;51.386;7.028;2022-12-29T08:56:25;10.30;99.90
2687;DHT22;1353;51.386;7.028;2022-12-29T08:58:52;10.30;99.90
2687;DHT22;1353;51.386;7.028;2022-12-29T09:01:19;10.10;99.90
2687;DHT22;1353;51.386;7.028;2022-12-29T09:03:47;9.80;99.90
2687;DHT22;1353;51.386;7.028;2022-12-29T09:06:14;9.70;99.90
2687;DHT22;1353;51.386;7.028;2022-12-29T09:08:42;9.50;99.90
2687;DHT22;1353;51.386;7.028;2022-12-29T09:11:12;9.70;99.90
2687;DHT22;1353;51.386;7.028;2022-12-29T09:13:40;9.80;99.90
2687;DHT22;1353;51.386;7.028;2022-12-29T09:16:07;9.80;99.90
2687;DHT22;1353;51.386;7.028;2022-12-29T09:18:34;9.70;99.90
2687;DHT22;1353;51.386;7.028;2022-12-29T09:21:03;9.80;99.90
2687;DHT22;1353;51.386;7.028;2022-12-29T09:23:31;9.80;99.90
2687;DHT22;1353;51.386;7.028;2022-12-29T09:25:57;9.80;99.90
2687;DHT22;1353;51.386;7.028;2022-12-29T09:28:24;9.90;99.90
2687;DHT22;1353;51.386;7.028;2022-12-29T09:30:52;10.00;99.90
2687;DHT22;1353;51.386;7.028;2022-12-29T09:33:19;10.00;99.90
2687;DHT22;1353;51.386;7.028;2022-12-29T09:35:52;10.10;99.90
2687;DHT22;1353;51.386;7.028;2022-12-29T09:38:19;10.10;99.90
2687;DHT22;1353;51.386;7.028;2022-12-29T09:40:54;10.10;99.90
2687;DHT22;1353;51.386;7.028;2022-12-29T09:43:38;10.20;99.90
2687;DHT22;1353;51.386;7.028;2022-12-29T09:46:18;10.20;99.90
2687;DHT22;1353;51.386;7.028;2022-12-29T09:48:51;10.30;99.90
2687;DHT22;1353;51.386;7.028;2022-12-29T09:51:22;10.30;99.90
2687;DHT22;1353;51.386;7.028;2022-12-29T09:53:53;10.30;99.90
2687;DHT22;1353;51.386;7.028;2022-12-29T09:56:24;10.30;99.90
2687;DHT22;1353;51.386;7.028;2022-12-29T09:58:54;10.30;99.90
2687;DHT22;1353;51.386;7.028;2022-12-29T10:01:29;10.40;99.90
2687;DHT22;1353;51.386;7.028;2022-12-29T10:03:57;10.30;99.90
2687;DHT22;1353;51.386;7.028;2022-12-29T10:06:28;10.40;99.90
2687;DHT22;1353;51.386;7.028;2022-12-29T10:09:03;10.50;99.90
2687;DHT22;1353;51.386;7.028;2022-12-29T10:11:46;10.40;99.90
2687;DHT22;1353;51.386;7.028;2022-12-29T10:14:26;10.50;99.90
2687;DHT22;1353;51.386;7.028;2022-12-29T10:17:03;10.60;99.90
2687;DHT22;1353;51.386;7.028;2022-12-29T10:19:44;10.50;99.90
2687;DHT22;1353;51.386;7.028;2022-12-29T10:22:22;10.50;99.90
2687;DHT22;1353;51.386;7.028;2022-12-29T10:24:55;10.60;99.90
2687;DHT22;1353;51.386;7.028;2022-12-29T10:27:22;10.70;99.90
2687;DHT22;1353;51.386;7.028;2022-12-29T10:29:55;10.60;99.90
2687;DHT22;1353;51.386;7.028;2022-12-29T10:32:29;10.80;99.90
2687;DHT22;1353;51.386;7.028;2022-12-29T10:34:59;10.80;99.90
2687;DHT22;1353;51.386;7.028;2022-12-29T10:37:34;10.80;99.90
2687;DHT22;1353;51.386;7.028;2022-12-29T10:40:15;10.90;99.90
2687;DHT22;1353;51.386;7.028;2022-12-29T10:42:45;10.90;99.90
2687;DHT22;1353;51.386;7.028;2022-12-29T10:45:15;11.00;99.90
2687;DHT22;1353;51.386;7.028;2022-12-29T10:47:54;10.90;99.90
2687;DHT22;1353;51.386;7.028;2022-12-29T10:50:23;10.90;99.90
2687;DHT22;1353;51.386;7.028;2022-12-29T10:52:50;10.90;99.90
2687;DHT22;1353;51.386;7.028;2022-12-29T10:55:21;10.80;99.90
2687;DHT22;1353;51.386;7.028;2022-12-29T10:57:48;10.80;99.90
2687;DHT22;1353;51.386;7.028;2022-12-29T11:00:17;10.80;99.90
2687;DHT22;1353;51.386;7.028;2022-12-29T11:03:14;10.80;99.90
2687;DHT22;1353;51.386;7.028;2022-12-29T11:05:52;10.80;99.90
2687;DHT22;1353;51.386;7.028;2022-12-29T11:08:25;10.80;99.90
2687;DHT22;1353;51.386;7.028;2022-12-29T11:10:59;10.80;99.90
2687;DHT22;1353;51.386;7.028;2022-12-29T11:13:27;10.80;99.90
2687;DHT22;1353;51.386;7.028;2022-12-29T11:15:54;10.80;99.90
2687;DHT22;1353;51.386;7.028;2022-12-29T11:18:24;10.70;99.90
2687;DHT22;1353;51.386;7.028;2022-12-29T11:20:53;10.70;99.90
2687;DHT22;1353;51.386;7.028;2022-12-29T11:23:30;10.70;99.90
2687;DHT22;1353;51.386;7.028;2022-12-29T11:26:22;10.70;99.90
2687;DHT22;1353;51.386;7.028;2022-12-29T11:29:16;10.70;99.90
2687;DHT22;1353;51.386;7.028;2022-12-29T11:31:45;10.70;99.90
2687;DHT22;1353;51.386;7.028;2022-12-29T11:34:19;10.60;99.90
2687;DHT22;1353;51.386;7.028;2022-12-29T11:36:47;10.70;99.90
2687;DHT22;1353;51.386;7.028;2022-12-29T11:39:28;10.70;99.90
2687;DHT22;1353;51.386;7.028;2022-12-29T11:41:55;10.70;99.90
2687;DHT22;1353;51.386;7.028;2022-12-29T11:44:23;10.70;99.90
2687;DHT22;1353;51.386;7.028;2022-12-29T11:46:52;10.70;99.90
2687;DHT22;1353;51.386;7.028;2022-12-29T11:49:22;10.60;99.90
2687;DHT22;1353;51.386;7.028;2022-12-29T11:51:51;10.70;99.90
2687;DHT22;1353;51.386;7.028;2022-12-29T11:54:23;10.70;99.90
2687;DHT22;1353;51.386;7.028;2022-12-29T11:56:50;10.70;99.90
2687;DHT22;1353;51.386;7.028;2022-12-29T11:59:41;10.80;99.90
2687;DHT22;1353;51.386;7.028;2022-12-29T12:02:36;10.90;99.90
2687;DHT22;1353;51.386;7.028;2022-12-29T12:05:13;10.80;99.90
2687;DHT22;1353;51.386;7.028;2022-12-29T12:07:44;10.80;99.90
2687;DHT22;1353;51.386;7.028;2022-12-29T12:10:16;10.80;99.90
2687;DHT22;1353;51.386;7.028;2022-12-29T12:12:48;10.80;99.90
2687;DHT22;1353;51.386;7.028;2022-12-29T12:15:20;10.70;99.90
2687;DHT22;1353;51.386;7.028;2022-12-29T12:17:53;10.80;99.90
2687;DHT22;1353;51.386;7.028;2022-12-29T12:20:27;10.90;99.90
2687;DHT22;1353;51.386;7.028;2022-12-29T12:23:07;10.90;99.90
2687;DHT22;1353;51.386;7.028;2022-12-29T12:25:45;10.90;99.90
2687;DHT22;1353;51.386;7.028;2022-12-29T12:28:20;11.00;99.90
2687;DHT22;1353;51.386;7.028;2022-12-29T12:30:53;11.00;99.90
2687;DHT22;1353;51.386;7.028;2022-12-29T12:33:24;11.00;99.90
2687;DHT22;1353;51.386;7.028;2022-12-29T12:36:10;11.00;99.90
2687;DHT22;1353;51.386;7.028;2022-12-29T12:38:47;10.80;99.90
2687;DHT22;1353;51.386;7.028;2022-12-29T12:41:19;10.80;99.90
2687;DHT22;1353;51.386;7.028;2022-12-29T12:43:51;10.80;99.90
2687;DHT22;1353;51.386;7.028;2022-12-29T12:49:35;10.80;99.90
2687;DHT22;1353;51.386;7.028;2022-12-29T12:52:10;10.80;99.90
2687;DHT22;1353;51.386;7.028;2022-12-29T12:54:54;10.80;99.90
2687;DHT22;1353;51.386;7.028;2022-12-29T12:57:34;10.70;99.90
2687;DHT22;1353;51.386;7.028;2022-12-29T13:00:09;10.70;99.90
2687;DHT22;1353;51.386;7.028;2022-12-29T13:02:48;10.60;99.90
2687;DHT22;1353;51.386;7.028;2022-12-29T13:05:41;10.70;99.90
2687;DHT22;1353;51.386;7.028;2022-12-29T13:08:31;10.60;99.90
2687;DHT22;1353;51.386;7.028;2022-12-29T13:11:09;10.70;99.90
2687;DHT22;1353;51.386;7.028;2022-12-29T13:13:56;10.60;99.90
2687;DHT22;1353;51.386;7.028;2022-12-29T13:16:29;10.50;99.90
2687;DHT22;1353;51.386;7.028;2022-12-29T13:19:02;10.60;99.90
2687;DHT22;1353;51.386;7.028;2022-12-29T13:21:40;10.60;99.90
2687;DHT22;1353;51.386;7.028;2022-12-29T13:24:19;10.60;99.90
2687;DHT22;1353;51.386;7.028;2022-12-29T13:26:53;10.60;99.90
2687;DHT22;1353;51.386;7.028;2022-12-29T13:29:27;10.50;99.90
2687;DHT22;1353;51.386;7.028;2022-12-29T13:32:09;10.50;99.90
2687;DHT22;1353;51.386;7.028;2022-12-29T13:34:46;10.60;99.90
2687;DHT22;1353;51.386;7.028;2022-12-29T13:37:18;10.50;99.90
2687;DHT22;1353;51.386;7.028;2022-12-29T13:39:49;10.60;99.90
2687;DHT22;1353;51.386;7.028;2022-12-29T13:42:19;10.50;99.90
2687;DHT22;1353;51.386;7.028;2022-12-29T13:44:51;10.50;99.90
2687;DHT22;1353;51.386;7.028;2022-12-29T13:47:25;10.50;99.90
2687;DHT22;1353;51.386;7.028;2022-12-29T13:49:56;10.60;99.90
2687;DHT22;1353;51.386;7.028;2022-12-29T13:52:29;10.50;99.90
2687;DHT22;1353;51.386;7.028;2022-12-29T13:55:05;10.40;99.90
2687;DHT22;1353;51.386;7.028;2022-12-29T13:57:39;10.40;99.90
2687;DHT22;1353;51.386;7.028;2022-12-29T14:00:13;10.40;99.90
2687;DHT22;1353;51.386;7.028;2022-12-29T14:02:50;10.40;99.90
2687;DHT22;1353;51.386;7.028;2022-12-29T14:05:30;10.40;99.90
2687;DHT22;1353;51.386;7.028;2022-12-29T14:08:00;10.40;99.90
2687;DHT22;1353;51.386;7.028;2022-12-29T14:10:32;10.30;99.90
2687;DHT22;1353;51.386;7.028;2022-12-29T14:13:04;10.30;99.90
2687;DHT22;1353;51.386;7.028;2022-12-29T14:15:32;10.40;99.90
2687;DHT22;1353;51.386;7.028;2022-12-29T14:18:10;10.40;99.90
2687;DHT22;1353;51.386;7.028;2022-12-29T14:20:38;10.30;99.90
2687;DHT22;1353;51.386;7.028;2022-12-29T14:23:17;10.40;99.90
2687;DHT22;1353;51.386;7.028;2022-12-29T14:25:59;10.40;99.90
2687;DHT22;1353;51.386;7.028;2022-12-29T14:28:28;10.40;99.90
2687;DHT22;1353;51.386;7.028;2022-12-29T14:30:55;10.40;99.90
2687;DHT22;1353;51.386;7.028;2022-12-29T14:33:24;10.50;99.90
2687;DHT22;1353;51.386;7.028;2022-12-29T14:35:52;10.40;99.90
2687;DHT22;1353;51.386;7.028;2022-12-29T14:38:23;10.40;99.90
2687;DHT22;1353;51.386;7.028;2022-12-29T14:40:51;10.30;99.90
2687;DHT22;1353;51.386;7.028;2022-12-29T14:43:28;10.30;99.90
2687;DHT22;1353;51.386;7.028;2022-12-29T14:45:58;10.30;99.90
2687;DHT22;1353;51.386;7.028;2022-12-29T14:48:33;10.30;99.90
2687;DHT22;1353;51.386;7.028;2022-12-29T14:51:02;10.30;99.90
2687;DHT22;1353;51.386;7.028;2022-12-29T14:53:45;10.20;99.90
2687;DHT22;1353;51.386;7.028;2022-12-29T14:56:14;10.20;99.90
2687;DHT22;1353;51.386;7.028;2022-12-29T14:58:47;10.20;99.90
2687;DHT22;1353;51.386;7.028;2022-12-29T15:01:22;10.20;99.90
2687;DHT22;1353;51.386;7.028;2022-12-29T15:03:53;10.20;99.90
2687;DHT22;1353;51.386;7.028;2022-12-29T15:06:22;10.20;99.90
2687;DHT22;1353;51.386;7.028;2022-12-29T15:08:54;10.10;99.90
2687;DHT22;1353;51.386;7.028;2022-12-29T15:11:24;10.10;99.90
2687;DHT22;1353;51.386;7.028;2022-12-29T15:13:52;10.00;99.90
2687;DHT22;1353;51.386;7.028;2022-12-29T15:16:24;10.00;99.90
2687;DHT22;1353;51.386;7.028;2022-12-29T15:18:51;10.00;99.90
2687;DHT22;1353;51.386;7.028;2022-12-29T15:21:22;10.00;99.90
2687;DHT22;1353;51.386;7.028;2022-12-29T15:23:49;10.00;99.90
2687;DHT22;1353;51.386;7.028;2022-12-29T15:26:16;10.00;99.90
2687;DHT22;1353;51.386;7.028;2022-12-29T15:28:49;10.00;99.90
2687;DHT22;1353;51.386;7.028;2022-12-29T15:31:18;10.00;99.90
2687;DHT22;1353;51.386;7.028;2022-12-29T15:33:47;10.00;99.90
2687;DHT22;1353;51.386;7.028;2022-12-29T15:36:18;9.90;99.90
2687;DHT22;1353;51.386;7.028;2022-12-29T15:38:46;9.90;99.90
2687;DHT22;1353;51.386;7.028;2022-12-29T15:41:24;9.90;99.90
2687;DHT22;1353;51.386;7.028;2022-12-29T15:44:11;9.90;99.90
2687;DHT22;1353;51.386;7.028;2022-12-29T15:46:42;9.80;99.90
2687;DHT22;1353;51.386;7.028;2022-12-29T15:49:13;9.80;99.90
2687;DHT22;1353;51.386;7.028;2022-12-29T15:51:40;9.70;99.90
2687;DHT22;1353;51.386;7.028;2022-12-29T15:54:15;9.70;99.90
2687;DHT22;1353;51.386;7.028;2022-12-29T15:56:43;9.50;99.90
2687;DHT22;1353;51.386;7.028;2022-12-29T15:59:23;9.40;99.90
2687;DHT22;1353;51.386;7.028;2022-12-29T16:01:52;9.40;99.90
2687;DHT22;1353;51.386;7.028;2022-12-29T16:04:19;9.50;99.90
2687;DHT22;1353;51.386;7.028;2022-12-29T16:06:55;9.40;99.90
2687;DHT22;1353;51.386;7.028;2022-12-29T16:09:30;9.40;99.90
2687;DHT22;1353;51.386;7.028;2022-12-29T16:11:59;9.40;99.90
2687;DHT22;1353;51.386;7.028;2022-12-29T16:14:31;9.40;99.90
2687;DHT22;1353;51.386;7.028;2022-12-29T16:17:02;9.30;99.90
2687;DHT22;1353;51.386;7.028;2022-12-29T16:19:35;9.20;99.90
2687;DHT22;1353;51.386;7.028;2022-12-29T16:22:03;9.20;99.90
2687;DHT22;1353;51.386;7.028;2022-12-29T16:24:32;9.10;99.90
2687;DHT22;1353;51.386;7.028;2022-12-29T16:27:06;9.20;99.90
2687;DHT22;1353;51.386;7.028;2022-12-29T16:29:33;9.30;99.90
2687;DHT22;1353;51.386;7.028;2022-12-29T16:32:03;9.20;99.90
2687;DHT22;1353;51.386;7.028;2022-12-29T16:34:49;9.10;99.90
2687;DHT22;1353;51.386;7.028;2022-12-29T16:37:28;9.10;99.90
2687;DHT22;1353;51.386;7.028;2022-12-29T16:39:55;9.00;99.90